createdAt,value
2023-01-19T00:02:39.330Z,13.52
2023-01-19T00:05:44.540Z,12.93
2023-01-19T00:08:50.236Z,14.30
2023-01-19T00:11:54.767Z,11.40
2023-01-19T00:14:59.327Z,12.45
2023-01-19T00:18:04.743Z,12.38
2023-01-19T00:21:09.336Z,13.80
2023-01-19T00:24:14.117Z,14.05
2023-01-19T00:27:18.660Z,14.98
2023-01-19T00:30:23.214Z,14.25
2023-01-19T00:33:28.028Z,14.00
2023-01-19T00:36:32.723Z,13.50
2023-01-19T00:39:37.332Z,14.07
2023-01-19T00:42:44.217Z,13.38
2023-01-19T00:45:48.798Z,11.43
2023-01-19T00:48:53.280Z,13.48
2023-01-19T00:51:57.821Z,14.27
2023-01-19T00:55:02.384Z,13.13
2023-01-19T00:58:07.228Z,17.58
2023-01-19T01:01:12.072Z,13.73
2023-01-19T01:04:16.701Z,13.25
2023-01-19T01:07:22.293Z,14.18
2023-01-19T01:10:28.857Z,14.20
2023-01-19T01:13:33.795Z,15.23
2023-01-19T01:16:38.844Z,13.95
2023-01-19T01:19:43.401Z,15.07
2023-01-19T01:22:50.933Z,14.88
2023-01-19T01:25:55.747Z,15.65
2023-01-19T01:29:00.496Z,15.27
2023-01-19T01:32:05.097Z,15.10
2023-01-19T01:35:11.060Z,14.70
2023-01-19T01:38:16.757Z,16.40
2023-01-19T01:41:21.976Z,15.13
2023-01-19T01:44:31.713Z,16.52
2023-01-19T01:47:58.336Z,13.38
2023-01-19T01:51:26.021Z,12.27
2023-01-19T01:54:33.480Z,14.48
2023-01-19T01:57:42.017Z,13.40
2023-01-19T02:01:05.296Z,15.50
2023-01-19T02:04:09.909Z,12.35
2023-01-19T02:07:39.774Z,14.82
2023-01-19T02:11:02.824Z,13.27
2023-01-19T02:14:07.343Z,14.00
2023-01-19T02:17:11.945Z,13.27
2023-01-19T02:20:17.702Z,14.82
2023-01-19T02:23:49.023Z,14.27
2023-01-19T02:26:53.784Z,14.32
2023-01-19T02:30:00.261Z,19.88
2023-01-19T02:33:04.825Z,12.82
2023-01-19T02:36:15.163Z,16.25
2023-01-19T02:39:25.650Z,12.95
2023-01-19T02:42:43.552Z,15.23
2023-01-19T02:45:48.232Z,15.73
2023-01-19T02:48:52.830Z,14.63
2023-01-19T02:51:58.486Z,15.50
2023-01-19T02:55:18.437Z,16.92
2023-01-19T02:58:37.376Z,14.40
2023-01-19T03:01:50.427Z,16.05
2023-01-19T03:05:04.936Z,15.30
2023-01-19T03:08:37.917Z,15.50
2023-01-19T03:11:50.130Z,19.63
2023-01-19T03:15:00.706Z,16.50
2023-01-19T03:18:10.253Z,17.10
2023-01-19T03:21:15.822Z,17.85
2023-01-19T03:24:22.771Z,13.27
2023-01-19T03:27:32.155Z,15.32
2023-01-19T03:30:40.502Z,17.50
2023-01-19T03:33:56.048Z,14.10
2023-01-19T03:37:03.731Z,18.63
2023-01-19T03:40:09.230Z,13.60
2023-01-19T03:43:16.692Z,11.27
2023-01-19T03:46:22.865Z,13.13
2023-01-19T03:49:31.177Z,12.90
2023-01-19T03:52:35.640Z,14.27
2023-01-19T03:55:43.097Z,13.00
2023-01-19T03:58:47.814Z,14.00
2023-01-19T04:01:52.385Z,12.52
2023-01-19T04:04:58.745Z,14.55
2023-01-19T04:08:03.364Z,13.95
2023-01-19T04:11:08.315Z,15.77
2023-01-19T04:14:13.181Z,14.77
2023-01-19T04:17:17.716Z,20.90
2023-01-19T04:20:22.294Z,16.52
2023-01-19T04:23:27.249Z,15.23
2023-01-19T04:26:31.845Z,16.70
2023-01-19T04:29:36.343Z,16.17
2023-01-19T04:32:40.971Z,17.20
2023-01-19T04:35:46.736Z,18.98
2023-01-19T04:38:51.372Z,19.13
2023-01-19T04:41:57.473Z,19.30
2023-01-19T04:45:02.026Z,16.42
2023-01-19T04:48:06.603Z,25.38
2023-01-19T04:51:11.142Z,17.20
2023-01-19T04:54:15.640Z,18.88
2023-01-19T04:57:20.202Z,16.00
2023-01-19T05:00:24.754Z,17.00
2023-01-19T05:03:29.394Z,18.95
2023-01-19T05:06:35.809Z,18.13
2023-01-19T05:09:40.449Z,20.02
2023-01-19T05:12:44.927Z,14.23
2023-01-19T05:15:50.281Z,17.80
2023-01-19T05:18:54.993Z,11.93
2023-01-19T05:21:59.489Z,13.25
2023-01-19T05:25:04.270Z,14.60
2023-01-19T05:31:29.040Z,18.15
2023-01-19T05:34:33.707Z,13.57
2023-01-19T05:37:38.247Z,15.48
2023-01-19T05:40:43.219Z,16.73
2023-01-19T05:43:47.769Z,16.00
2023-01-19T05:46:52.443Z,13.93
2023-01-19T05:49:57.351Z,16.27
2023-01-19T05:53:03.361Z,14.27
2023-01-19T05:56:09.533Z,13.63
2023-01-19T05:59:15.287Z,17.45
2023-01-19T06:02:19.828Z,16.35
2023-01-19T06:05:25.547Z,13.70
2023-01-19T06:08:30.219Z,14.48
2023-01-19T06:11:34.744Z,13.70
2023-01-19T06:14:40.618Z,15.73
2023-01-19T06:17:45.235Z,14.40
2023-01-19T06:20:49.815Z,16.02
2023-01-19T06:23:54.394Z,12.13
2023-01-19T06:27:00.383Z,15.20
2023-01-19T06:30:06.394Z,20.15
2023-01-19T06:33:10.972Z,13.88
2023-01-19T06:36:16.948Z,14.80
2023-01-19T06:39:21.487Z,16.05
2023-01-19T06:42:25.950Z,16.17
2023-01-19T06:45:30.471Z,20.23
2023-01-19T06:48:35.022Z,14.55
2023-01-19T06:51:40.698Z,11.40
2023-01-19T06:54:46.086Z,14.00
2023-01-19T06:57:57.707Z,14.30
2023-01-19T07:01:03.862Z,13.73
2023-01-19T07:04:08.436Z,18.33
2023-01-19T07:07:12.950Z,14.93
2023-01-19T07:10:17.564Z,14.32
2023-01-19T07:13:22.234Z,12.60
2023-01-19T07:16:28.815Z,15.30
2023-01-19T07:19:34.868Z,12.05
2023-01-19T07:22:39.990Z,18.83
2023-01-19T07:25:46.045Z,14.65
2023-01-19T07:28:51.760Z,16.17
2023-01-19T07:31:56.335Z,12.65
2023-01-19T07:35:00.927Z,17.38
2023-01-19T07:38:05.541Z,16.60
2023-01-19T07:41:11.796Z,17.05
2023-01-19T07:44:16.547Z,16.38
2023-01-19T07:47:21.095Z,17.20
2023-01-19T07:50:27.668Z,19.25
2023-01-19T07:53:32.691Z,16.40
2023-01-19T07:56:37.253Z,17.60
2023-01-19T07:59:41.768Z,19.20
2023-01-19T08:02:47.153Z,15.32
2023-01-19T08:05:53.041Z,17.25
2023-01-19T08:08:57.576Z,19.10
2023-01-19T08:12:02.086Z,14.68
2023-01-19T08:15:07.169Z,16.73
2023-01-19T08:18:11.781Z,19.65
2023-01-19T08:21:16.419Z,17.70
2023-01-19T08:24:23.830Z,19.42
2023-01-19T08:27:28.831Z,16.10
2023-01-19T08:30:34.062Z,17.65
2023-01-19T08:33:38.662Z,20.05
2023-01-19T08:36:43.233Z,19.45
2023-01-19T08:39:47.758Z,17.65
2023-01-19T08:42:52.347Z,20.05
2023-01-19T08:45:56.898Z,22.92
2023-01-19T08:49:01.438Z,21.90
2023-01-19T08:52:06.001Z,18.75
2023-01-19T08:55:11.831Z,23.58
2023-01-19T08:58:16.589Z,20.02
2023-01-19T09:01:22.281Z,21.98
2023-01-19T09:04:26.970Z,18.77
2023-01-19T09:07:33.887Z,23.27
2023-01-19T09:10:45.878Z,16.52
2023-01-19T09:13:50.346Z,16.60
2023-01-19T09:16:59.020Z,15.88
2023-01-19T09:20:05.823Z,27.95
2023-01-19T09:23:11.596Z,14.85
2023-01-19T09:26:16.573Z,17.88
2023-01-19T09:29:21.697Z,17.58
2023-01-19T09:32:26.376Z,15.25
2023-01-19T09:35:31.438Z,16.83
2023-01-19T09:38:36.631Z,15.25
2023-01-19T09:41:47.078Z,12.02
2023-01-19T09:44:53.188Z,14.88
2023-01-19T09:47:59.324Z,15.23
2023-01-19T09:51:10.289Z,14.77
2023-01-19T09:54:29.840Z,17.23
2023-01-19T09:57:35.719Z,14.48
2023-01-19T10:00:42.831Z,16.63
2023-01-19T10:03:53.446Z,15.45
2023-01-19T10:07:19.341Z,14.95
2023-01-19T10:10:28.890Z,16.08
2023-01-19T10:13:46.999Z,12.25
2023-01-19T10:17:29.890Z,12.77
2023-01-19T10:20:51.132Z,12.77
2023-01-19T10:23:58.746Z,11.43
2023-01-19T10:27:10.292Z,11.50
2023-01-19T10:30:23.247Z,14.85
2023-01-19T10:36:38.150Z,10.13
2023-01-19T10:39:47.296Z,14.60
2023-01-19T10:42:51.789Z,15.48
2023-01-19T10:45:58.123Z,12.73
2023-01-19T10:49:03.214Z,15.65
2023-01-19T10:52:19.112Z,9.43
2023-01-19T10:55:29.610Z,12.73
2023-01-19T10:58:35.082Z,9.68
2023-01-19T11:01:39.768Z,16.05
2023-01-19T11:04:50.118Z,10.88
2023-01-19T11:07:55.284Z,15.30
2023-01-19T11:11:08.023Z,9.73
2023-01-19T11:14:22.559Z,10.82
2023-01-19T11:17:28.503Z,10.27
2023-01-19T11:20:44.036Z,12.02
2023-01-19T11:23:52.094Z,9.63
2023-01-19T11:27:02.858Z,9.77
2023-01-19T11:30:18.143Z,7.28
2023-01-19T11:33:37.790Z,8.88
2023-01-19T11:37:01.890Z,11.38
2023-01-19T11:40:10.541Z,7.82
2023-01-19T11:43:15.257Z,9.20
2023-01-19T11:46:21.422Z,13.38
2023-01-19T11:49:40.655Z,6.82
2023-01-19T11:52:47.698Z,7.95
2023-01-19T11:56:10.915Z,6.63
2023-01-19T12:02:30.898Z,8.15
2023-01-19T12:05:38.801Z,7.28
2023-01-19T12:08:55.233Z,11.55
2023-01-19T12:12:05.914Z,7.63
2023-01-19T12:15:18.276Z,5.22
2023-01-19T12:18:27.857Z,6.43
2023-01-19T12:21:32.373Z,9.30
2023-01-19T12:24:46.701Z,7.50
2023-01-19T12:27:52.012Z,7.35
2023-01-19T12:30:58.263Z,13.25
2023-01-19T12:34:31.069Z,11.13
2023-01-19T12:37:40.592Z,9.85
2023-01-19T12:40:45.403Z,8.27
2023-01-19T12:44:16.416Z,7.95
2023-01-19T12:47:22.806Z,5.72
2023-01-19T12:50:31.823Z,6.68
2023-01-19T12:53:36.561Z,4.93
2023-01-19T12:56:41.083Z,5.60
2023-01-19T12:59:45.769Z,4.25
2023-01-19T13:02:58.722Z,5.03
2023-01-19T13:06:03.502Z,8.35
2023-01-19T13:09:27.621Z,7.25
2023-01-19T13:12:33.674Z,7.13
2023-01-19T13:15:39.248Z,8.35
2023-01-19T13:18:50.286Z,7.57
2023-01-19T13:21:54.971Z,8.20
2023-01-19T13:25:07.570Z,7.82
2023-01-19T13:28:16.645Z,7.40
2023-01-19T13:31:22.810Z,7.40
2023-01-19T13:34:28.533Z,8.98
2023-01-19T13:37:39.764Z,7.95
2023-01-19T13:40:45.867Z,4.93
2023-01-19T13:43:58.502Z,8.05
2023-01-19T13:47:04.145Z,9.70
2023-01-19T13:50:09.672Z,7.82
2023-01-19T13:53:23.471Z,8.48
2023-01-19T13:56:29.746Z,6.38
2023-01-19T13:59:34.423Z,9.35
2023-01-19T14:02:59.058Z,9.55
2023-01-19T14:06:03.857Z,6.28
2023-01-19T14:09:18.434Z,9.73
2023-01-19T14:12:23.122Z,10.25
2023-01-19T14:15:29.313Z,7.40
2023-01-19T14:18:36.016Z,12.45
2023-01-19T14:21:41.207Z,6.90
2023-01-19T14:24:45.779Z,6.65
2023-01-19T14:27:50.312Z,11.68
2023-01-19T14:31:00.814Z,9.20
2023-01-19T14:34:05.518Z,12.05
2023-01-19T14:37:34.099Z,8.10
2023-01-19T14:40:38.602Z,11.65
2023-01-19T14:43:44.899Z,14.50
2023-01-19T14:46:49.928Z,9.98
2023-01-19T14:49:56.297Z,9.68
2023-01-19T14:53:04.410Z,9.45
2023-01-19T14:56:09.065Z,9.07
2023-01-19T14:59:13.855Z,8.25
2023-01-19T15:02:21.449Z,8.20
2023-01-19T15:05:26.012Z,8.95
2023-01-19T15:08:37.534Z,9.23
2023-01-19T15:11:43.421Z,9.25
2023-01-19T15:14:48.044Z,8.25
2023-01-19T15:17:55.239Z,9.63
2023-01-19T15:21:02.849Z,9.35
2023-01-19T15:24:08.877Z,8.48
2023-01-19T15:27:13.502Z,8.77
2023-01-19T15:30:21.487Z,11.05
2023-01-19T15:33:32.848Z,12.35
2023-01-19T15:36:37.347Z,10.60
2023-01-19T15:39:41.953Z,11.65
2023-01-19T15:42:46.743Z,14.82
2023-01-19T15:45:59.810Z,11.75
2023-01-19T15:49:05.680Z,13.82
2023-01-19T15:52:10.276Z,15.90
2023-01-19T15:55:15.812Z,10.35
2023-01-19T15:58:20.682Z,12.93
2023-01-19T16:01:32.100Z,10.38
2023-01-19T16:04:36.773Z,13.38
2023-01-19T16:07:41.327Z,11.35
2023-01-19T16:10:45.826Z,12.23
2023-01-19T16:13:50.528Z,12.93
2023-01-19T16:16:55.320Z,9.85
2023-01-19T16:19:59.956Z,10.52
2023-01-19T16:23:20.118Z,10.75
2023-01-19T16:26:30.301Z,9.07
2023-01-19T16:29:34.827Z,11.57
2023-01-19T16:32:39.309Z,12.80
2023-01-19T16:35:43.795Z,13.23
2023-01-19T16:38:48.395Z,15.25
2023-01-19T16:41:52.855Z,9.60
2023-01-19T16:44:58.780Z,10.07
2023-01-19T16:48:03.265Z,9.98
2023-01-19T16:51:07.865Z,11.35
2023-01-19T16:54:16.931Z,9.70
2023-01-19T16:57:21.571Z,7.90
2023-01-19T17:00:26.163Z,7.97
2023-01-19T17:03:30.725Z,6.97
2023-01-19T17:06:35.351Z,13.77
2023-01-19T17:09:39.891Z,10.23
2023-01-19T17:12:45.862Z,10.50
2023-01-19T17:15:50.524Z,8.25
2023-01-19T17:18:57.185Z,10.82
2023-01-19T17:22:01.703Z,7.38
2023-01-19T17:25:06.660Z,11.13
2023-01-19T17:28:11.184Z,8.43
2023-01-19T17:31:21.133Z,8.48
2023-01-19T17:34:25.872Z,7.97
2023-01-19T17:37:31.869Z,8.98
2023-01-19T17:40:37.089Z,9.32
2023-01-19T17:43:41.668Z,9.35
2023-01-19T17:46:46.203Z,9.52
2023-01-19T17:49:50.721Z,12.68
2023-01-19T17:52:56.745Z,9.15
2023-01-19T17:56:08.051Z,10.57
2023-01-19T17:59:12.557Z,10.15
2023-01-19T18:02:17.361Z,9.77
2023-01-19T18:05:23.249Z,9.65
2023-01-19T18:08:27.847Z,10.30
2023-01-19T18:11:32.590Z,7.72
2023-01-19T18:14:37.753Z,9.23
2023-01-19T18:17:42.704Z,10.18
2023-01-19T18:20:47.179Z,10.05
2023-01-19T18:23:52.802Z,9.38
2023-01-19T18:26:57.434Z,9.60
2023-01-19T18:30:02.016Z,8.23
2023-01-19T18:33:06.592Z,10.40
2023-01-19T18:36:11.342Z,9.07
2023-01-19T18:39:18.919Z,9.23
2023-01-19T18:42:23.471Z,9.45
2023-01-19T18:45:27.983Z,9.48
2023-01-19T18:48:32.597Z,11.98
2023-01-19T18:51:37.528Z,7.82
2023-01-19T18:54:42.099Z,13.07
2023-01-19T18:57:46.910Z,12.93
2023-01-19T19:00:51.622Z,9.95
2023-01-19T19:03:57.168Z,10.38
2023-01-19T19:07:01.817Z,9.27
2023-01-19T19:10:06.836Z,9.27
2023-01-19T19:13:13.071Z,10.25
2023-01-19T19:16:17.578Z,11.82
2023-01-19T19:19:22.190Z,11.70
2023-01-19T19:22:26.728Z,8.70
2023-01-19T19:25:32.211Z,11.70
2023-01-19T19:28:38.419Z,11.02
2023-01-19T19:31:42.966Z,8.48
2023-01-19T19:34:52.576Z,9.35
2023-01-19T19:37:57.682Z,8.88
2023-01-19T19:41:06.982Z,11.93
2023-01-19T19:44:14.173Z,14.02
2023-01-19T19:47:19.190Z,9.55
2023-01-19T19:50:23.788Z,10.55
2023-01-19T19:53:28.449Z,17.45
2023-01-19T19:56:34.284Z,10.93
2023-01-19T19:59:38.900Z,12.27
2023-01-19T20:02:43.520Z,12.30
2023-01-19T20:05:48.124Z,14.20
2023-01-19T20:08:55.330Z,11.63
2023-01-19T20:11:59.942Z,15.35
2023-01-19T20:15:04.789Z,13.60
2023-01-19T20:18:09.392Z,13.18
2023-01-19T20:21:18.712Z,10.90
2023-01-19T20:24:23.277Z,14.32
2023-01-19T20:27:27.749Z,14.68
2023-01-19T20:30:32.398Z,11.15
2023-01-19T20:33:37.112Z,12.30
2023-01-19T20:36:42.277Z,10.30
2023-01-19T20:39:46.780Z,14.63
2023-01-19T20:42:51.350Z,10.95
2023-01-19T20:45:55.934Z,11.48
2023-01-19T20:49:00.446Z,9.93
2023-01-19T20:52:05.074Z,10.25
2023-01-19T20:55:10.404Z,10.93
2023-01-19T20:58:15.079Z,10.85
2023-01-19T21:01:23.358Z,16.88
2023-01-19T21:04:27.995Z,15.38
2023-01-19T21:07:32.601Z,12.25
2023-01-19T21:10:37.187Z,15.13
2023-01-19T21:13:41.712Z,12.40
2023-01-19T21:16:46.261Z,12.00
2023-01-19T21:19:50.797Z,7.63
2023-01-19T21:22:56.691Z,13.80
2023-01-19T21:26:01.760Z,8.52
2023-01-19T21:29:06.254Z,9.75
2023-01-19T21:32:10.858Z,10.38
2023-01-19T21:38:55.571Z,14.10
2023-01-19T21:42:00.238Z,12.15
2023-01-19T21:45:05.215Z,13.32
2023-01-19T21:48:12.899Z,11.88
2023-01-19T21:51:17.516Z,11.77
2023-01-19T21:54:22.035Z,13.18
2023-01-19T21:57:26.547Z,11.88
2023-01-19T22:00:31.568Z,12.02
2023-01-19T22:03:36.350Z,12.10
2023-01-19T22:06:40.943Z,12.45
2023-01-19T22:09:45.418Z,13.80
2023-01-19T22:12:49.948Z,16.33
2023-01-19T22:16:00.604Z,18.90
2023-01-19T22:19:07.577Z,13.00
2023-01-19T22:22:12.103Z,12.82
2023-01-19T22:25:16.624Z,15.55
2023-01-19T22:28:21.144Z,15.15
2023-01-19T22:31:27.057Z,12.27
2023-01-19T22:34:32.616Z,17.02
2023-01-19T22:37:37.645Z,16.40
2023-01-19T22:40:42.145Z,19.63
2023-01-19T22:43:47.916Z,11.43
2023-01-19T22:46:55.117Z,12.32
2023-01-19T22:49:59.647Z,18.17
2023-01-19T22:53:04.195Z,15.38
2023-01-19T22:56:39.310Z,14.07
2023-01-19T22:59:43.927Z,14.10
2023-01-19T23:02:48.392Z,15.18
2023-01-19T23:05:53.011Z,13.80
2023-01-19T23:08:59.801Z,15.32
2023-01-19T23:12:04.638Z,14.00
2023-01-19T23:15:10.419Z,17.33
2023-01-19T23:18:16.552Z,11.18
2023-01-19T23:21:22.854Z,13.43
2023-01-19T23:24:27.468Z,12.25
2023-01-19T23:27:31.980Z,9.52
2023-01-19T23:30:36.556Z,13.98
2023-01-19T23:33:41.522Z,13.60
2023-01-19T23:36:46.142Z,9.88
2023-01-19T23:39:50.740Z,11.20
2023-01-19T23:42:55.275Z,10.40
2023-01-19T23:46:04.827Z,13.98
2023-01-19T23:49:09.353Z,10.32
2023-01-19T23:52:15.842Z,11.27
2023-01-19T23:55:20.403Z,13.18
2023-01-19T23:58:24.881Z,11.75
